Big Bear Station Historical Data
Daily Summary for June 5, 2019 Units:  English    Metric   Both
Next Day »
Daily Weekly Monthly Yearly Custom
  High: Low: Average:
Temperature: 81.9 °F 44.8 °F 61.3 °F
Dew Point: 51.9 °F 37.7 °F 43.5 °F
Humidity: 92% 22% 58%
Wind Speed: 4.7mph 0mph 0.8mph
Wind Gust: -999mph - -
Wind- - SW
Pressure: 23.59 in 23.55 in -
Precipitation: 0 in    
Historical Graphs
 
 
Tabular Data for June 5, 2019
Time Temperature Dew Point Pressure Wind Wind Speed Wind Gust Humidity Rainfall Rate (Hourly)
00:07 50.5 °F 42.9 °F 23.57 in Calm   -999 mph 75% 0.00 in
00:22 50 °F 43.1 °F 23.56 in Calm   -999 mph 77% 0.00 in
00:37 49.6 °F 42.7 °F 23.56 in Calm   -999 mph 77% 0.00 in
00:53 49.5 °F 43.3 °F 23.56 in Calm   -999 mph 79% 0.00 in
01:08 48.9 °F 44 °F 23.56 in Calm   -999 mph 83% 0.00 in
01:23 48.7 °F 44.1 °F 23.56 in Calm   -999 mph 84% 0.00 in
01:38 48.4 °F 44.1 °F 23.56 in Calm   -999 mph 85% 0.00 in
01:54 48 °F 43.7 °F 23.56 in Calm   -999 mph 85% 0.00 in
02:09 47.8 °F 43.5 °F 23.56 in Calm   -999 mph 85% 0.00 in
02:24 47.5 °F 42.9 °F 23.56 in Calm   -999 mph 84% 0.00 in
02:39 47.3 °F 42.7 °F 23.56 in Calm   -999 mph 84% 0.00 in
02:54 47.1 °F 42.5 °F 23.56 in Calm   -999 mph 84% 0.00 in
03:10 46.8 °F 42.8 °F 23.56 in Calm   -999 mph 86% 0.00 in
03:25 46.6 °F 42.9 °F 23.56 in Calm   -999 mph 87% 0.00 in
03:40 46.6 °F 42.9 °F 23.56 in Calm   -999 mph 87% 0.00 in
03:55 46.4 °F 42.7 °F 23.56 in Calm   -999 mph 87% 0.00 in
04:10 46 °F 42.9 °F 23.56 in Calm   -999 mph 89% 0.00 in
04:26 45.9 °F 42.8 °F 23.56 in Calm   -999 mph 89% 0.00 in
04:41 45.5 °F 42.7 °F 23.56 in Calm   -999 mph 90% 0.00 in
04:56 45.5 °F 42.4 °F 23.55 in Calm   -999 mph 89% 0.00 in
05:11 45 °F 42 °F 23.56 in Calm   -999 mph 89% 0.00 in
05:26 44.8 °F 41.8 °F 23.56 in Calm   -999 mph 89% 0.00 in
05:42 44.8 °F 41.8 °F 23.56 in Calm   -999 mph 89% 0.00 in
05:57 44.8 °F 42 °F 23.56 in Calm   -999 mph 90% 0.00 in
06:12 44.8 °F 42 °F 23.56 in Calm   -999 mph 90% 0.00 in
06:27 45 °F 42.8 °F 23.57 in Calm   -999 mph 92% 0.00 in
06:42 45.5 °F 43.3 °F 23.57 in Calm   -999 mph 92% 0.00 in
06:58 45.9 °F 43.7 °F 23.57 in Calm   -999 mph 92% 0.00 in
07:13 46.6 °F 44.1 °F 23.57 in Calm   -999 mph 91% 0.00 in
07:28 47.1 °F 44.9 °F 23.58 in Calm   -999 mph 92% 0.00 in
07:43 48.6 °F 46.1 °F 23.58 in Calm   -999 mph 91% 0.00 in
07:59 50.4 °F 47 °F 23.58 in Calm   -999 mph 88% 0.00 in
08:14 52.2 °F 48.1 °F 23.58 in Calm   -999 mph 86% 0.00 in
08:29 53.8 °F 48.8 °F 23.59 in Calm   -999 mph 83% 0.00 in
08:44 55.4 °F 50 °F 23.59 in Calm   -999 mph 82% 0.00 in
08:59 57.4 °F 50.6 °F 23.59 in Calm   -999 mph 78% 0.00 in
09:15 60.4 °F 51.3 °F 23.58 in Calm   -999 mph 72% 0.00 in
09:30 62.6 °F 51.9 °F 23.59 in Calm   -999 mph 68% 0.00 in
09:45 65.3 °F 50.1 °F 23.58 in Calm   -999 mph 58% 0.00 in
10:00 67.8 °F 45.1 °F 23.58 in North 1.1 mph -999 mph 44% 0.00 in
10:15 70.2 °F 44.7 °F 23.59 in North 3.7 mph -999 mph 40% 0.00 in
10:31 71.6 °F 44 °F 23.59 in North 4.2 mph -999 mph 37% 0.00 in
10:46 73.2 °F 46.8 °F 23.59 in West 4.2 mph -999 mph 39% 0.00 in
11:01 73.6 °F 46.4 °F 23.59 in ENE 3.7 mph -999 mph 38% 0.00 in
11:16 73.4 °F 43.3 °F 23.59 in East 2.2 mph -999 mph 34% 0.00 in
11:31 72.3 °F 40.8 °F 23.59 in SSE 1.1 mph -999 mph 32% 0.00 in
11:47 73.8 °F 43.7 °F 23.59 in Calm   -999 mph 34% 0.00 in
12:02 73 °F 44.5 °F 23.59 in Calm   -999 mph 36% 0.00 in
12:18 74.3 °F 47.7 °F 23.59 in NW 2.7 mph -999 mph 39% 0.00 in
12:33 74.7 °F 43.7 °F 23.59 in Calm   -999 mph 33% 0.00 in
12:48 73.9 °F 45.3 °F 23.59 in NNE 1.7 mph -999 mph 36% 0.00 in
13:04 73.4 °F 44.1 °F 23.59 in NW 2.2 mph -999 mph 35% 0.00 in
13:19 72.7 °F 44.2 °F 23.59 in SW 2.7 mph -999 mph 36% 0.00 in
13:34 72.1 °F 43.7 °F 23.59 in Calm   -999 mph 36% 0.00 in
13:49 72.1 °F 41.4 °F 23.59 in Calm   -999 mph 33% 0.00 in
14:04 78.8 °F 42.9 °F 23.59 in ENE 2.2 mph -999 mph 28% 0.00 in
14:20 75.4 °F 42.7 °F 23.59 in Calm   -999 mph 31% 0.00 in
14:35 75.9 °F 43.9 °F 23.59 in Calm   -999 mph 32% 0.00 in
14:51 76.6 °F 43.7 °F 23.58 in ESE 1.1 mph -999 mph 31% 0.00 in
15:06 79 °F 44 °F 23.58 in North 4.2 mph -999 mph 29% 0.00 in
15:21 79.9 °F 43.9 °F 23.57 in Calm   -999 mph 28% 0.00 in
15:36 78.3 °F 39.6 °F 23.57 in SSW 2.2 mph -999 mph 25% 0.00 in
15:51 79.3 °F 41.4 °F 23.57 in Calm   -999 mph 26% 0.00 in
16:07 77.4 °F 40.8 °F 23.57 in ESE 1.1 mph -999 mph 27% 0.00 in
16:22 77.4 °F 38.8 °F 23.56 in NW 4.7 mph -999 mph 25% 0.00 in
16:38 78.6 °F 37.7 °F 23.56 in SSW 3.7 mph -999 mph 23% 0.00 in
16:53 81 °F 38.6 °F 23.56 in South 1.1 mph -999 mph 22% 0.00 in
17:08 80.4 °F 40.3 °F 23.56 in ESE 2.2 mph -999 mph 24% 0.00 in
17:23 81.9 °F 39.3 °F 23.56 in South 1.7 mph -999 mph 22% 0.00 in
17:39 80.2 °F 43.2 °F 23.56 in NNW 3.7 mph -999 mph 27% 0.00 in
17:54 78.8 °F 44.8 °F 23.56 in Calm   -999 mph 30% 0.00 in
18:09 78.8 °F 45.6 °F 23.56 in NW 2.2 mph -999 mph 31% 0.00 in
18:24 78.1 °F 45 °F 23.56 in NW 3.2 mph -999 mph 31% 0.00 in
18:39 76.8 °F 45.5 °F 23.56 in NNW 3.7 mph -999 mph 33% 0.00 in
18:55 75.9 °F 45.5 °F 23.56 in NNW 4.2 mph -999 mph 34% 0.00 in
19:10 71.6 °F 45.3 °F 23.56 in Calm   -999 mph 39% 0.00 in
19:25 68 °F 45.9 °F 23.56 in SW 1.7 mph -999 mph 45% 0.00 in
19:40 65.7 °F 47.1 °F 23.56 in WNW 2.2 mph -999 mph 51% 0.00 in
19:55 63.5 °F 46.1 °F 23.56 in Calm   -999 mph 53% 0.00 in
20:11 62.4 °F 44 °F 23.56 in Calm   -999 mph 51% 0.00 in
20:26 61.3 °F 42.5 °F 23.56 in Calm   -999 mph 50% 0.00 in
20:41 60.3 °F 41.1 °F 23.56 in Calm   -999 mph 49% 0.00 in
20:56 59.4 °F 40.2 °F 23.56 in Calm   -999 mph 49% 0.00 in
21:12 59 °F 39.9 °F 23.57 in Calm   -999 mph 49% 0.00 in
21:27 58.1 °F 39 °F 23.57 in Calm   -999 mph 49% 0.00 in
21:42 57.7 °F 38.1 °F 23.57 in Calm   -999 mph 48% 0.00 in
21:57 57.7 °F 38.7 °F 23.57 in Calm   -999 mph 49% 0.00 in
22:12 57.2 °F 39.2 °F 23.58 in Calm   -999 mph 51% 0.00 in
22:28 56.5 °F 40.5 °F 23.58 in Calm   -999 mph 55% 0.00 in
22:43 55.6 °F 42.8 °F 23.58 in Calm   -999 mph 62% 0.00 in
22:58 54.7 °F 43.2 °F 23.58 in Calm   -999 mph 65% 0.00 in
23:13 54 °F 42.1 °F 23.58 in Calm   -999 mph 64% 0.00 in
23:28 53.1 °F 41.2 °F 23.58 in Calm   -999 mph 64% 0.00 in
23:44 52.5 °F 40.7 °F 23.58 in Calm   -999 mph 64% 0.00 in
23:59 51.8 °F 40 °F 23.58 in Calm   -999 mph 64% 0.00 in
Big Bear CA Weather